sensor_id;sensor_type;location;lat;lon;timestamp;P1;durP1;ratioP1;P2;durP2;ratioP2
4961;SDS011;2496;52.468;13.342;2024-02-21T00:00:33;19.50;;;6.20;;
4961;SDS011;2496;52.468;13.342;2024-02-21T00:03:03;23.87;;;7.17;;
4961;SDS011;2496;52.468;13.342;2024-02-21T00:05:30;24.17;;;7.17;;
4961;SDS011;2496;52.468;13.342;2024-02-21T00:07:58;10.10;;;5.87;;
4961;SDS011;2496;52.468;13.342;2024-02-21T00:10:25;22.23;;;6.20;;
4961;SDS011;2496;52.468;13.342;2024-02-21T00:12:54;15.33;;;6.70;;
4961;SDS011;2496;52.468;13.342;2024-02-21T00:15:22;16.53;;;6.00;;
4961;SDS011;2496;52.468;13.342;2024-02-21T00:17:49;19.43;;;6.20;;
4961;SDS011;2496;52.468;13.342;2024-02-21T00:20:16;26.43;;;7.30;;
4961;SDS011;2496;52.468;13.342;2024-02-21T00:22:44;22.00;;;6.47;;
4961;SDS011;2496;52.468;13.342;2024-02-21T00:25:11;22.20;;;6.30;;
4961;SDS011;2496;52.468;13.342;2024-02-21T00:27:38;15.80;;;6.60;;
4961;SDS011;2496;52.468;13.342;2024-02-21T00:30:06;21.93;;;6.07;;
4961;SDS011;2496;52.468;13.342;2024-02-21T00:32:35;32.17;;;5.87;;
4961;SDS011;2496;52.468;13.342;2024-02-21T00:35:02;14.97;;;5.37;;
4961;SDS011;2496;52.468;13.342;2024-02-21T00:37:30;17.83;;;5.30;;
4961;SDS011;2496;52.468;13.342;2024-02-21T00:39:58;16.63;;;6.47;;
4961;SDS011;2496;52.468;13.342;2024-02-21T00:42:25;17.50;;;5.30;;
4961;SDS011;2496;52.468;13.342;2024-02-21T00:44:52;20.73;;;6.77;;
4961;SDS011;2496;52.468;13.342;2024-02-21T00:47:19;21.50;;;5.70;;
4961;SDS011;2496;52.468;13.342;2024-02-21T00:49:48;16.60;;;5.30;;
4961;SDS011;2496;52.468;13.342;2024-02-21T00:52:15;22.73;;;8.03;;
4961;SDS011;2496;52.468;13.342;2024-02-21T00:54:45;17.40;;;5.77;;
4961;SDS011;2496;52.468;13.342;2024-02-21T00:57:14;23.63;;;6.13;;
4961;SDS011;2496;52.468;13.342;2024-02-21T00:59:41;27.70;;;6.20;;
4961;SDS011;2496;52.468;13.342;2024-02-21T01:02:08;21.67;;;5.87;;
4961;SDS011;2496;52.468;13.342;2024-02-21T01:04:35;13.50;;;5.00;;
4961;SDS011;2496;52.468;13.342;2024-02-21T01:07:04;13.53;;;5.17;;
4961;SDS011;2496;52.468;13.342;2024-02-21T01:09:31;14.83;;;5.00;;
4961;SDS011;2496;52.468;13.342;2024-02-21T01:11:58;12.07;;;4.67;;
4961;SDS011;2496;52.468;13.342;2024-02-21T01:14:26;17.27;;;5.80;;
4961;SDS011;2496;52.468;13.342;2024-02-21T01:16:53;16.73;;;6.40;;
4961;SDS011;2496;52.468;13.342;2024-02-21T01:19:20;11.67;;;5.00;;
4961;SDS011;2496;52.468;13.342;2024-02-21T01:21:47;21.50;;;6.00;;
4961;SDS011;2496;52.468;13.342;2024-02-21T01:24:16;13.43;;;4.77;;
4961;SDS011;2496;52.468;13.342;2024-02-21T01:26:43;19.03;;;5.60;;
4961;SDS011;2496;52.468;13.342;2024-02-21T01:29:11;16.13;;;5.30;;
4961;SDS011;2496;52.468;13.342;2024-02-21T01:31:38;14.43;;;5.40;;
4961;SDS011;2496;52.468;13.342;2024-02-21T01:34:06;23.13;;;6.63;;
4961;SDS011;2496;52.468;13.342;2024-02-21T01:36:33;17.93;;;5.53;;
4961;SDS011;2496;52.468;13.342;2024-02-21T01:39:00;21.93;;;5.30;;
4961;SDS011;2496;52.468;13.342;2024-02-21T01:41:30;25.73;;;6.10;;
4961;SDS011;2496;52.468;13.342;2024-02-21T01:43:58;22.43;;;5.67;;
4961;SDS011;2496;52.468;13.342;2024-02-21T01:46:25;17.80;;;5.43;;
4961;SDS011;2496;52.468;13.342;2024-02-21T01:48:55;17.20;;;5.57;;
4961;SDS011;2496;52.468;13.342;2024-02-21T01:51:23;21.57;;;5.80;;
4961;SDS011;2496;52.468;13.342;2024-02-21T01:53:50;22.10;;;5.30;;
4961;SDS011;2496;52.468;13.342;2024-02-21T01:56:18;18.77;;;5.33;;
4961;SDS011;2496;52.468;13.342;2024-02-21T01:58:46;25.40;;;9.07;;
4961;SDS011;2496;52.468;13.342;2024-02-21T02:01:14;19.90;;;5.93;;
4961;SDS011;2496;52.468;13.342;2024-02-21T02:03:42;16.53;;;5.27;;
4961;SDS011;2496;52.468;13.342;2024-02-21T02:06:09;14.10;;;4.53;;
4961;SDS011;2496;52.468;13.342;2024-02-21T02:08:36;17.90;;;6.37;;
4961;SDS011;2496;52.468;13.342;2024-02-21T02:11:03;24.07;;;5.20;;
4961;SDS011;2496;52.468;13.342;2024-02-21T02:13:32;12.93;;;5.07;;
4961;SDS011;2496;52.468;13.342;2024-02-21T02:16:00;15.87;;;5.10;;
4961;SDS011;2496;52.468;13.342;2024-02-21T02:18:28;24.90;;;6.27;;
4961;SDS011;2496;52.468;13.342;2024-02-21T02:20:56;13.80;;;4.33;;
4961;SDS011;2496;52.468;13.342;2024-02-21T02:23:25;24.47;;;5.33;;
4961;SDS011;2496;52.468;13.342;2024-02-21T02:25:53;19.47;;;5.40;;
4961;SDS011;2496;52.468;13.342;2024-02-21T02:28:23;18.37;;;5.50;;
4961;SDS011;2496;52.468;13.342;2024-02-21T02:30:50;18.70;;;5.70;;
4961;SDS011;2496;52.468;13.342;2024-02-21T02:33:17;14.00;;;4.73;;
4961;SDS011;2496;52.468;13.342;2024-02-21T02:35:45;17.67;;;5.40;;
4961;SDS011;2496;52.468;13.342;2024-02-21T02:38:12;17.80;;;5.27;;
4961;SDS011;2496;52.468;13.342;2024-02-21T02:40:41;13.43;;;4.67;;
4961;SDS011;2496;52.468;13.342;2024-02-21T02:43:09;13.80;;;5.17;;
4961;SDS011;2496;52.468;13.342;2024-02-21T02:45:36;16.90;;;6.63;;
4961;SDS011;2496;52.468;13.342;2024-02-21T02:48:03;14.00;;;5.57;;
4961;SDS011;2496;52.468;13.342;2024-02-21T02:50:31;17.10;;;5.87;;
4961;SDS011;2496;52.468;13.342;2024-02-21T02:52:58;17.13;;;5.40;;
4961;SDS011;2496;52.468;13.342;2024-02-21T02:55:25;19.63;;;5.83;;
4961;SDS011;2496;52.468;13.342;2024-02-21T02:57:54;13.47;;;5.00;;
4961;SDS011;2496;52.468;13.342;2024-02-21T03:00:22;21.43;;;5.73;;
4961;SDS011;2496;52.468;13.342;2024-02-21T03:02:49;19.90;;;5.70;;
4961;SDS011;2496;52.468;13.342;2024-02-21T03:05:17;22.20;;;6.63;;
4961;SDS011;2496;52.468;13.342;2024-02-21T03:07:45;20.20;;;6.10;;
4961;SDS011;2496;52.468;13.342;2024-02-21T03:10:13;19.47;;;5.70;;
4961;SDS011;2496;52.468;13.342;2024-02-21T03:12:41;18.23;;;6.63;;
4961;SDS011;2496;52.468;13.342;2024-02-21T03:15:09;15.67;;;6.03;;
4961;SDS011;2496;52.468;13.342;2024-02-21T03:17:37;19.60;;;5.97;;
4961;SDS011;2496;52.468;13.342;2024-02-21T03:20:04;15.57;;;6.07;;
4961;SDS011;2496;52.468;13.342;2024-02-21T03:22:34;25.80;;;7.00;;
4961;SDS011;2496;52.468;13.342;2024-02-21T03:25:01;14.83;;;6.20;;
4961;SDS011;2496;52.468;13.342;2024-02-21T03:27:28;17.50;;;5.93;;
4961;SDS011;2496;52.468;13.342;2024-02-21T03:29:55;20.27;;;6.27;;
4961;SDS011;2496;52.468;13.342;2024-02-21T03:32:24;18.00;;;6.43;;
4961;SDS011;2496;52.468;13.342;2024-02-21T03:34:53;14.10;;;5.80;;
4961;SDS011;2496;52.468;13.342;2024-02-21T03:37:20;16.73;;;6.63;;
4961;SDS011;2496;52.468;13.342;2024-02-21T03:39:47;13.77;;;6.17;;
4961;SDS011;2496;52.468;13.342;2024-02-21T03:42:15;18.97;;;6.10;;
4961;SDS011;2496;52.468;13.342;2024-02-21T03:44:42;26.23;;;5.87;;
4961;SDS011;2496;52.468;13.342;2024-02-21T03:47:09;19.40;;;7.40;;
4961;SDS011;2496;52.468;13.342;2024-02-21T03:49:38;15.20;;;5.70;;
4961;SDS011;2496;52.468;13.342;2024-02-21T03:52:05;20.30;;;6.90;;
4961;SDS011;2496;52.468;13.342;2024-02-21T03:54:33;23.23;;;6.40;;
4961;SDS011;2496;52.468;13.342;2024-02-21T03:57:00;18.63;;;6.97;;
4961;SDS011;2496;52.468;13.342;2024-02-21T03:59:28;15.80;;;7.07;;
4961;SDS011;2496;52.468;13.342;2024-02-21T04:01:55;14.60;;;6.90;;
4961;SDS011;2496;52.468;13.342;2024-02-21T04:04:22;16.37;;;6.13;;
4961;SDS011;2496;52.468;13.342;2024-02-21T04:06:51;16.87;;;6.90;;
4961;SDS011;2496;52.468;13.342;2024-02-21T04:09:18;24.87;;;8.00;;
4961;SDS011;2496;52.468;13.342;2024-02-21T04:11:45;15.57;;;6.33;;
4961;SDS011;2496;52.468;13.342;2024-02-21T04:14:13;13.60;;;6.37;;
4961;SDS011;2496;52.468;13.342;2024-02-21T04:16:40;15.60;;;7.07;;
4961;SDS011;2496;52.468;13.342;2024-02-21T04:19:07;24.77;;;7.10;;
4961;SDS011;2496;52.468;13.342;2024-02-21T04:21:34;25.07;;;7.83;;
4961;SDS011;2496;52.468;13.342;2024-02-21T04:24:03;21.00;;;6.90;;
4961;SDS011;2496;52.468;13.342;2024-02-21T04:26:30;20.77;;;6.50;;
4961;SDS011;2496;52.468;13.342;2024-02-21T04:28:58;18.53;;;6.43;;
4961;SDS011;2496;52.468;13.342;2024-02-21T04:31:25;18.07;;;7.30;;
4961;SDS011;2496;52.468;13.342;2024-02-21T04:33:52;34.33;;;8.27;;
4961;SDS011;2496;52.468;13.342;2024-02-21T04:36:19;23.50;;;7.63;;
4961;SDS011;2496;52.468;13.342;2024-02-21T04:38:47;20.27;;;7.27;;
4961;SDS011;2496;52.468;13.342;2024-02-21T04:41:16;13.83;;;5.70;;
4961;SDS011;2496;52.468;13.342;2024-02-21T04:43:45;14.30;;;6.57;;
4961;SDS011;2496;52.468;13.342;2024-02-21T04:46:13;14.60;;;6.83;;
4961;SDS011;2496;52.468;13.342;2024-02-21T04:48:40;22.60;;;6.47;;
4961;SDS011;2496;52.468;13.342;2024-02-21T04:51:08;20.43;;;7.50;;
4961;SDS011;2496;52.468;13.342;2024-02-21T04:53:35;12.73;;;6.80;;
4961;SDS011;2496;52.468;13.342;2024-02-21T04:56:03;16.43;;;8.20;;
4961;SDS011;2496;52.468;13.342;2024-02-21T04:58:31;25.17;;;8.20;;
4961;SDS011;2496;52.468;13.342;2024-02-21T05:01:01;27.13;;;7.37;;
4961;SDS011;2496;52.468;13.342;2024-02-21T05:03:28;22.93;;;7.60;;
4961;SDS011;2496;52.468;13.342;2024-02-21T05:05:56;17.40;;;6.27;;
4961;SDS011;2496;52.468;13.342;2024-02-21T05:08:23;16.67;;;7.20;;
4961;SDS011;2496;52.468;13.342;2024-02-21T05:10:50;21.43;;;6.73;;
4961;SDS011;2496;52.468;13.342;2024-02-21T05:13:21;16.30;;;6.80;;
4961;SDS011;2496;52.468;13.342;2024-02-21T05:15:50;21.43;;;7.03;;
4961;SDS011;2496;52.468;13.342;2024-02-21T05:18:17;22.30;;;7.43;;
4961;SDS011;2496;52.468;13.342;2024-02-21T05:20:44;18.23;;;5.93;;
4961;SDS011;2496;52.468;13.342;2024-02-21T05:23:11;23.70;;;8.23;;
4961;SDS011;2496;52.468;13.342;2024-02-21T05:25:39;18.80;;;7.23;;
4961;SDS011;2496;52.468;13.342;2024-02-21T05:28:06;15.37;;;6.60;;
4961;SDS011;2496;52.468;13.342;2024-02-21T05:30:33;18.70;;;6.77;;
4961;SDS011;2496;52.468;13.342;2024-02-21T05:33:05;28.83;;;8.10;;
4961;SDS011;2496;52.468;13.342;2024-02-21T05:35:32;27.10;;;7.67;;
4961;SDS011;2496;52.468;13.342;2024-02-21T05:37:59;17.73;;;7.40;;
4961;SDS011;2496;52.468;13.342;2024-02-21T05:40:29;15.70;;;7.10;;
4961;SDS011;2496;52.468;13.342;2024-02-21T05:42:56;20.30;;;8.60;;
4961;SDS011;2496;52.468;13.342;2024-02-21T05:45:23;24.33;;;7.87;;
4961;SDS011;2496;52.468;13.342;2024-02-21T05:47:51;21.97;;;8.13;;
4961;SDS011;2496;52.468;13.342;2024-02-21T05:50:19;16.10;;;7.27;;
4961;SDS011;2496;52.468;13.342;2024-02-21T05:52:48;18.80;;;7.00;;
4961;SDS011;2496;52.468;13.342;2024-02-21T05:55:15;16.60;;;7.80;;
4961;SDS011;2496;52.468;13.342;2024-02-21T05:57:43;21.03;;;7.73;;
4961;SDS011;2496;52.468;13.342;2024-02-21T06:00:10;18.50;;;7.63;;
4961;SDS011;2496;52.468;13.342;2024-02-21T06:02:38;27.35;;;8.30;;
4961;SDS011;2496;52.468;13.342;2024-02-21T06:05:05;21.23;;;9.00;;
4961;SDS011;2496;52.468;13.342;2024-02-21T06:07:35;15.57;;;7.10;;
4961;SDS011;2496;52.468;13.342;2024-02-21T06:10:02;22.80;;;8.50;;
4961;SDS011;2496;52.468;13.342;2024-02-21T06:12:29;20.50;;;8.00;;
4961;SDS011;2496;52.468;13.342;2024-02-21T06:14:57;28.77;;;8.33;;
4961;SDS011;2496;52.468;13.342;2024-02-21T06:17:24;20.27;;;8.93;;
4961;SDS011;2496;52.468;13.342;2024-02-21T06:19:51;26.37;;;8.40;;
4961;SDS011;2496;52.468;13.342;2024-02-21T06:22:18;18.37;;;8.13;;
4961;SDS011;2496;52.468;13.342;2024-02-21T06:24:47;17.00;;;7.47;;
4961;SDS011;2496;52.468;13.342;2024-02-21T06:27:15;30.57;;;8.30;;
4961;SDS011;2496;52.468;13.342;2024-02-21T06:29:42;23.07;;;8.37;;
4961;SDS011;2496;52.468;13.342;2024-02-21T06:32:10;19.53;;;7.57;;
4961;SDS011;2496;52.468;13.342;2024-02-21T06:34:37;15.20;;;7.10;;
4961;SDS011;2496;52.468;13.342;2024-02-21T06:37:04;21.57;;;9.03;;
4961;SDS011;2496;52.468;13.342;2024-02-21T06:39:32;15.93;;;7.53;;
4961;SDS011;2496;52.468;13.342;2024-02-21T06:42:00;16.63;;;8.00;;
4961;SDS011;2496;52.468;13.342;2024-02-21T06:44:27;18.90;;;9.13;;
4961;SDS011;2496;52.468;13.342;2024-02-21T06:46:55;23.00;;;7.73;;
4961;SDS011;2496;52.468;13.342;2024-02-21T06:49:23;22.87;;;8.40;;
4961;SDS011;2496;52.468;13.342;2024-02-21T06:51:50;19.87;;;8.50;;
4961;SDS011;2496;52.468;13.342;2024-02-21T06:54:18;18.30;;;8.93;;
4961;SDS011;2496;52.468;13.342;2024-02-21T06:56:45;18.27;;;8.03;;
4961;SDS011;2496;52.468;13.342;2024-02-21T06:59:13;23.10;;;8.50;;
4961;SDS011;2496;52.468;13.342;2024-02-21T07:01:44;18.50;;;10.17;;
4961;SDS011;2496;52.468;13.342;2024-02-21T07:04:11;18.17;;;7.20;;
4961;SDS011;2496;52.468;13.342;2024-02-21T07:06:38;17.57;;;8.40;;
4961;SDS011;2496;52.468;13.342;2024-02-21T07:09:05;25.20;;;9.40;;
4961;SDS011;2496;52.468;13.342;2024-02-21T07:11:32;22.97;;;9.20;;
4961;SDS011;2496;52.468;13.342;2024-02-21T07:14:00;17.83;;;8.00;;
4961;SDS011;2496;52.468;13.342;2024-02-21T07:16:28;21.80;;;8.37;;
4961;SDS011;2496;52.468;13.342;2024-02-21T07:18:57;19.27;;;7.67;;
4961;SDS011;2496;52.468;13.342;2024-02-21T07:21:24;24.60;;;8.90;;
4961;SDS011;2496;52.468;13.342;2024-02-21T07:23:52;19.17;;;8.30;;
4961;SDS011;2496;52.468;13.342;2024-02-21T07:26:19;18.73;;;8.37;;
4961;SDS011;2496;52.468;13.342;2024-02-21T07:28:46;21.10;;;8.77;;
4961;SDS011;2496;52.468;13.342;2024-02-21T07:31:14;23.47;;;7.87;;
4961;SDS011;2496;52.468;13.342;2024-02-21T07:33:42;19.03;;;7.53;;
4961;SDS011;2496;52.468;13.342;2024-02-21T07:36:10;16.63;;;7.70;;
4961;SDS011;2496;52.468;13.342;2024-02-21T07:38:37;15.23;;;7.17;;
4961;SDS011;2496;52.468;13.342;2024-02-21T07:41:04;22.60;;;8.50;;
4961;SDS011;2496;52.468;13.342;2024-02-21T07:43:31;21.63;;;7.60;;
4961;SDS011;2496;52.468;13.342;2024-02-21T07:45:59;26.33;;;7.53;;
4961;SDS011;2496;52.468;13.342;2024-02-21T07:48:26;17.13;;;7.17;;
4961;SDS011;2496;52.468;13.342;2024-02-21T07:50:54;16.83;;;8.00;;
4961;SDS011;2496;52.468;13.342;2024-02-21T07:53:22;17.50;;;7.13;;
4961;SDS011;2496;52.468;13.342;2024-02-21T07:55:49;17.63;;;7.23;;
4961;SDS011;2496;52.468;13.342;2024-02-21T07:58:16;21.37;;;7.33;;
4961;SDS011;2496;52.468;13.342;2024-02-21T08:00:43;25.10;;;8.00;;
4961;SDS011;2496;52.468;13.342;2024-02-21T08:03:11;28.90;;;8.20;;
4961;SDS011;2496;52.468;13.342;2024-02-21T08:05:39;16.63;;;7.10;;
4961;SDS011;2496;52.468;13.342;2024-02-21T08:08:08;16.83;;;7.20;;
4961;SDS011;2496;52.468;13.342;2024-02-21T08:10:35;15.20;;;7.17;;
4961;SDS011;2496;52.468;13.342;2024-02-21T08:13:03;15.83;;;7.30;;
4961;SDS011;2496;52.468;13.342;2024-02-21T08:15:30;14.00;;;7.43;;
4961;SDS011;2496;52.468;13.342;2024-02-21T08:17:59;14.90;;;6.47;;
4961;SDS011;2496;52.468;13.342;2024-02-21T08:20:27;14.80;;;7.20;;
4961;SDS011;2496;52.468;13.342;2024-02-21T08:22:54;20.97;;;7.77;;
4961;SDS011;2496;52.468;13.342;2024-02-21T08:25:22;13.33;;;7.30;;
4961;SDS011;2496;52.468;13.342;2024-02-21T08:27:50;25.53;;;8.70;;
4961;SDS011;2496;52.468;13.342;2024-02-21T08:30:17;17.90;;;7.67;;
4961;SDS011;2496;52.468;13.342;2024-02-21T08:32:45;15.80;;;7.80;;
4961;SDS011;2496;52.468;13.342;2024-02-21T08:35:12;21.03;;;9.23;;
4961;SDS011;2496;52.468;13.342;2024-02-21T08:37:39;21.67;;;9.50;;
4961;SDS011;2496;52.468;13.342;2024-02-21T08:40:08;12.77;;;7.73;;
4961;SDS011;2496;52.468;13.342;2024-02-21T08:42:37;19.83;;;9.03;;
4961;SDS011;2496;52.468;13.342;2024-02-21T08:45:07;21.13;;;9.20;;
4961;SDS011;2496;52.468;13.342;2024-02-21T08:47:34;20.60;;;9.07;;
4961;SDS011;2496;52.468;13.342;2024-02-21T08:50:02;22.70;;;9.63;;
4961;SDS011;2496;52.468;13.342;2024-02-21T08:52:31;20.63;;;8.30;;
4961;SDS011;2496;52.468;13.342;2024-02-21T08:54:58;12.70;;;8.40;;
4961;SDS011;2496;52.468;13.342;2024-02-21T08:57:26;19.03;;;8.80;;
4961;SDS011;2496;52.468;13.342;2024-02-21T08:59:55;18.57;;;9.03;;
4961;SDS011;2496;52.468;13.342;2024-02-21T09:02:22;17.60;;;9.33;;
4961;SDS011;2496;52.468;13.342;2024-02-21T09:04:49;13.93;;;8.80;;
4961;SDS011;2496;52.468;13.342;2024-02-21T09:07:16;24.60;;;9.67;;
4961;SDS011;2496;52.468;13.342;2024-02-21T09:09:44;23.10;;;9.93;;
4961;SDS011;2496;52.468;13.342;2024-02-21T09:12:11;19.63;;;10.20;;
4961;SDS011;2496;52.468;13.342;2024-02-21T09:14:40;19.77;;;9.60;;
4961;SDS011;2496;52.468;13.342;2024-02-21T09:17:09;20.87;;;9.20;;
4961;SDS011;2496;52.468;13.342;2024-02-21T09:19:37;22.63;;;9.40;;
4961;SDS011;2496;52.468;13.342;2024-02-21T09:22:05;16.43;;;8.70;;
4961;SDS011;2496;52.468;13.342;2024-02-21T09:24:34;18.03;;;9.40;;
4961;SDS011;2496;52.468;13.342;2024-02-21T09:27:01;20.07;;;9.43;;
4961;SDS011;2496;52.468;13.342;2024-02-21T09:29:29;16.83;;;9.37;;
4961;SDS011;2496;52.468;13.342;2024-02-21T09:31:58;15.77;;;9.57;;
4961;SDS011;2496;52.468;13.342;2024-02-21T09:34:26;25.17;;;9.70;;
4961;SDS011;2496;52.468;13.342;2024-02-21T09:36:54;23.07;;;11.00;;
4961;SDS011;2496;52.468;13.342;2024-02-21T09:39:21;21.47;;;9.50;;
4961;SDS011;2496;52.468;13.342;2024-02-21T09:41:50;21.73;;;10.67;;
4961;SDS011;2496;52.468;13.342;2024-02-21T09:44:20;20.27;;;9.73;;
4961;SDS011;2496;52.468;13.342;2024-02-21T09:46:51;14.57;;;9.20;;
4961;SDS011;2496;52.468;13.342;2024-02-21T09:49:21;27.17;;;10.50;;
4961;SDS011;2496;52.468;13.342;2024-02-21T09:51:54;23.73;;;10.50;;
4961;SDS011;2496;52.468;13.342;2024-02-21T09:54:22;19.67;;;9.63;;
4961;SDS011;2496;52.468;13.342;2024-02-21T09:56:50;21.53;;;10.50;;
4961;SDS011;2496;52.468;13.342;2024-02-21T09:59:17;17.00;;;9.40;;
4961;SDS011;2496;52.468;13.342;2024-02-21T10:01:44;22.13;;;9.23;;
4961;SDS011;2496;52.468;13.342;2024-02-21T10:04:13;25.00;;;11.17;;
4961;SDS011;2496;52.468;13.342;2024-02-21T10:06:40;23.03;;;10.60;;
4961;SDS011;2496;52.468;13.342;2024-02-21T10:09:08;18.10;;;8.73;;
4961;SDS011;2496;52.468;13.342;2024-02-21T10:11:36;24.33;;;9.73;;
4961;SDS011;2496;52.468;13.342;2024-02-21T10:14:03;23.30;;;10.20;;
4961;SDS011;2496;52.468;13.342;2024-02-21T10:16:31;18.60;;;9.00;;
4961;SDS011;2496;52.468;13.342;2024-02-21T10:18:58;19.10;;;9.20;;
4961;SDS011;2496;52.468;13.342;2024-02-21T10:21:25;17.50;;;9.40;;
4961;SDS011;2496;52.468;13.342;2024-02-21T10:23:53;20.53;;;9.20;;
4961;SDS011;2496;52.468;13.342;2024-02-21T10:26:21;18.30;;;9.83;;
4961;SDS011;2496;52.468;13.342;2024-02-21T10:28:48;20.87;;;10.07;;
4961;SDS011;2496;52.468;13.342;2024-02-21T10:31:23;17.00;;;8.70;;
4961;SDS011;2496;52.468;13.342;2024-02-21T10:33:53;22.50;;;9.60;;
4961;SDS011;2496;52.468;13.342;2024-02-21T10:36:21;14.83;;;8.70;;
4961;SDS011;2496;52.468;13.342;2024-02-21T10:38:48;17.20;;;9.30;;
4961;SDS011;2496;52.468;13.342;2024-02-21T10:41:15;22.03;;;9.27;;
4961;SDS011;2496;52.468;13.342;2024-02-21T10:43:46;12.80;;;8.73;;
4961;SDS011;2496;52.468;13.342;2024-02-21T10:46:13;17.80;;;9.00;;
4961;SDS011;2496;52.468;13.342;2024-02-21T10:48:42;14.10;;;8.50;;
4961;SDS011;2496;52.468;13.342;2024-02-21T10:51:19;20.17;;;8.97;;
4961;SDS011;2496;52.468;13.342;2024-02-21T10:53:50;21.07;;;8.13;;
4961;SDS011;2496;52.468;13.342;2024-02-21T10:56:22;13.30;;;8.60;;
4961;SDS011;2496;52.468;13.342;2024-02-21T10:58:51;15.90;;;8.57;;
4961;SDS011;2496;52.468;13.342;2024-02-21T11:01:20;19.00;;;8.57;;
4961;SDS011;2496;52.468;13.342;2024-02-21T11:03:48;20.43;;;9.50;;
4961;SDS011;2496;52.468;13.342;2024-02-21T11:06:16;21.40;;;8.10;;
4961;SDS011;2496;52.468;13.342;2024-02-21T11:08:44;17.73;;;9.80;;
4961;SDS011;2496;52.468;13.342;2024-02-21T11:11:12;14.33;;;8.50;;
4961;SDS011;2496;52.468;13.342;2024-02-21T11:13:43;13.63;;;7.83;;
4961;SDS011;2496;52.468;13.342;2024-02-21T11:16:21;14.50;;;7.60;;
4961;SDS011;2496;52.468;13.342;2024-02-21T11:18:48;16.47;;;7.90;;
4961;SDS011;2496;52.468;13.342;2024-02-21T11:21:16;12.10;;;8.03;;
4961;SDS011;2496;52.468;13.342;2024-02-21T11:23:43;12.63;;;7.20;;
4961;SDS011;2496;52.468;13.342;2024-02-21T11:26:09;12.50;;;8.40;;
4961;SDS011;2496;52.468;13.342;2024-02-21T11:28:37;15.67;;;7.37;;
4961;SDS011;2496;52.468;13.342;2024-02-21T11:31:06;13.93;;;7.80;;
4961;SDS011;2496;52.468;13.342;2024-02-21T11:33:35;14.73;;;7.53;;
4961;SDS011;2496;52.468;13.342;2024-02-21T11:36:02;17.30;;;7.20;;
4961;SDS011;2496;52.468;13.342;2024-02-21T11:38:30;13.23;;;6.43;;
4961;SDS011;2496;52.468;13.342;2024-02-21T11:40:57;13.63;;;7.10;;
4961;SDS011;2496;52.468;13.342;2024-02-21T11:43:24;15.83;;;9.73;;
4961;SDS011;2496;52.468;13.342;2024-02-21T11:45:58;18.70;;;7.07;;
4961;SDS011;2496;52.468;13.342;2024-02-21T11:48:25;10.30;;;7.43;;
4961;SDS011;2496;52.468;13.342;2024-02-21T11:50:54;10.17;;;6.70;;
4961;SDS011;2496;52.468;13.342;2024-02-21T11:53:21;13.43;;;6.90;;
4961;SDS011;2496;52.468;13.342;2024-02-21T11:55:49;10.27;;;6.40;;
4961;SDS011;2496;52.468;13.342;2024-02-21T11:58:17;10.67;;;6.87;;
4961;SDS011;2496;52.468;13.342;2024-02-21T12:00:44;9.33;;;6.03;;
4961;SDS011;2496;52.468;13.342;2024-02-21T12:03:11;9.50;;;5.80;;
4961;SDS011;2496;52.468;13.342;2024-02-21T12:05:38;11.00;;;6.70;;
4961;SDS011;2496;52.468;13.342;2024-02-21T12:08:07;11.20;;;6.30;;
4961;SDS011;2496;52.468;13.342;2024-02-21T12:10:35;16.40;;;6.80;;
4961;SDS011;2496;52.468;13.342;2024-02-21T12:13:06;10.73;;;6.27;;
4961;SDS011;2496;52.468;13.342;2024-02-21T12:15:34;10.60;;;6.10;;
4961;SDS011;2496;52.468;13.342;2024-02-21T12:18:01;10.23;;;6.17;;
4961;SDS011;2496;52.468;13.342;2024-02-21T12:20:29;9.90;;;5.30;;
4961;SDS011;2496;52.468;13.342;2024-02-21T12:22:59;8.50;;;5.50;;
4961;SDS011;2496;52.468;13.342;2024-02-21T12:25:28;6.57;;;5.63;;
4961;SDS011;2496;52.468;13.342;2024-02-21T12:27:55;7.03;;;4.20;;
4961;SDS011;2496;52.468;13.342;2024-02-21T12:30:24;11.50;;;5.30;;
4961;SDS011;2496;52.468;13.342;2024-02-21T12:32:52;13.83;;;5.77;;
4961;SDS011;2496;52.468;13.342;2024-02-21T12:35:19;7.80;;;4.73;;
4961;SDS011;2496;52.468;13.342;2024-02-21T12:37:46;9.53;;;5.20;;
4961;SDS011;2496;52.468;13.342;2024-02-21T12:40:13;9.93;;;4.90;;
4961;SDS011;2496;52.468;13.342;2024-02-21T12:42:42;11.07;;;4.73;;
4961;SDS011;2496;52.468;13.342;2024-02-21T12:45:10;9.20;;;4.03;;
4961;SDS011;2496;52.468;13.342;2024-02-21T12:47:38;11.50;;;4.83;;
4961;SDS011;2496;52.468;13.342;2024-02-21T12:50:05;11.03;;;4.83;;
4961;SDS011;2496;52.468;13.342;2024-02-21T12:52:33;10.83;;;4.90;;
4961;SDS011;2496;52.468;13.342;2024-02-21T12:55:00;8.17;;;4.70;;
4961;SDS011;2496;52.468;13.342;2024-02-21T12:57:28;8.03;;;4.30;;
4961;SDS011;2496;52.468;13.342;2024-02-21T12:59:57;11.10;;;5.07;;
4961;SDS011;2496;52.468;13.342;2024-02-21T13:02:24;9.30;;;4.90;;
4961;SDS011;2496;52.468;13.342;2024-02-21T13:04:52;6.37;;;4.33;;
4961;SDS011;2496;52.468;13.342;2024-02-21T13:07:19;7.30;;;4.80;;
4961;SDS011;2496;52.468;13.342;2024-02-21T13:09:46;13.53;;;4.50;;
4961;SDS011;2496;52.468;13.342;2024-02-21T13:12:13;7.60;;;4.07;;
4961;SDS011;2496;52.468;13.342;2024-02-21T13:14:41;11.70;;;4.63;;
4961;SDS011;2496;52.468;13.342;2024-02-21T13:17:10;7.80;;;4.53;;
4961;SDS011;2496;52.468;13.342;2024-02-21T13:19:37;11.90;;;5.90;;
4961;SDS011;2496;52.468;13.342;2024-02-21T13:22:05;6.50;;;4.13;;
4961;SDS011;2496;52.468;13.342;2024-02-21T13:24:32;6.50;;;4.10;;
4961;SDS011;2496;52.468;13.342;2024-02-21T13:27:00;12.37;;;5.27;;
4961;SDS011;2496;52.468;13.342;2024-02-21T13:29:28;7.70;;;4.17;;
4961;SDS011;2496;52.468;13.342;2024-02-21T13:31:55;8.90;;;3.97;;
4961;SDS011;2496;52.468;13.342;2024-02-21T13:34:24;10.00;;;4.83;;
4961;SDS011;2496;52.468;13.342;2024-02-21T13:36:51;13.73;;;4.57;;
4961;SDS011;2496;52.468;13.342;2024-02-21T13:39:18;15.17;;;5.90;;
4961;SDS011;2496;52.468;13.342;2024-02-21T13:41:46;11.37;;;5.13;;
4961;SDS011;2496;52.468;13.342;2024-02-21T13:44:13;14.40;;;7.60;;
4961;SDS011;2496;52.468;13.342;2024-02-21T13:46:40;13.73;;;6.60;;
4961;SDS011;2496;52.468;13.342;2024-02-21T13:49:07;9.37;;;5.17;;
4961;SDS011;2496;52.468;13.342;2024-02-21T13:51:36;8.63;;;4.57;;
4961;SDS011;2496;52.468;13.342;2024-02-21T13:54:05;12.93;;;4.70;;
4961;SDS011;2496;52.468;13.342;2024-02-21T13:56:34;7.07;;;4.40;;
4961;SDS011;2496;52.468;13.342;2024-02-21T13:59:01;7.60;;;3.97;;
4961;SDS011;2496;52.468;13.342;2024-02-21T14:01:29;9.03;;;4.20;;
4961;SDS011;2496;52.468;13.342;2024-02-21T14:03:58;9.60;;;4.57;;
4961;SDS011;2496;52.468;13.342;2024-02-21T14:06:25;17.27;;;4.70;;
4961;SDS011;2496;52.468;13.342;2024-02-21T14:08:53;7.43;;;4.17;;
4961;SDS011;2496;52.468;13.342;2024-02-21T14:11:21;9.07;;;4.17;;
4961;SDS011;2496;52.468;13.342;2024-02-21T14:13:48;7.03;;;4.40;;
4961;SDS011;2496;52.468;13.342;2024-02-21T14:16:15;9.37;;;4.20;;
4961;SDS011;2496;52.468;13.342;2024-02-21T14:18:42;15.80;;;4.60;;
4961;SDS011;2496;52.468;13.342;2024-02-21T14:21:10;10.43;;;3.93;;
4961;SDS011;2496;52.468;13.342;2024-02-21T14:23:37;9.83;;;5.00;;
4961;SDS011;2496;52.468;13.342;2024-02-21T14:26:06;10.13;;;4.13;;
4961;SDS011;2496;52.468;13.342;2024-02-21T14:28:33;11.83;;;4.10;;
4961;SDS011;2496;52.468;13.342;2024-02-21T14:31:01;6.70;;;4.20;;
4961;SDS011;2496;52.468;13.342;2024-02-21T14:33:28;5.00;;;3.97;;
4961;SDS011;2496;52.468;13.342;2024-02-21T14:35:56;13.10;;;4.03;;
4961;SDS011;2496;52.468;13.342;2024-02-21T14:38:24;12.00;;;4.37;;
4961;SDS011;2496;52.468;13.342;2024-02-21T14:40:52;7.70;;;4.23;;
4961;SDS011;2496;52.468;13.342;2024-02-21T14:43:21;6.40;;;3.70;;
4961;SDS011;2496;52.468;13.342;2024-02-21T14:45:48;12.13;;;4.43;;
4961;SDS011;2496;52.468;13.342;2024-02-21T14:48:16;9.70;;;4.43;;
4961;SDS011;2496;52.468;13.342;2024-02-21T14:50:43;7.47;;;4.33;;